Terminal Aerodrome Forecast
Issued by NWS Nashville, TN

Home | Current Version | Previous Version | Text Only | Print | Product List | Glossary On
Versions: 1 2 3 4 5 6 7 8 9 10 11 12 13 14 15 16
747
FTUS44 KOHX 271730
TAFCSV
TAF
KCSV 271730Z 2718/2818 23004KT P6SM VCTS SCT040CB BKN100
     FM280100 22002KT P6SM SCT050 BKN090
     FM280900 21003KT 5SM BR VCSH BKN025 OVC050
     FM281200 22006KT 4SM -SHRA BR VCTS BKN007 OVC015CB=

USA.gov is the U.S. government's official web portal to all federal, state and local government web resources and services.